Aérodrome :
LOGIN :

S'inscrire | Disclaimer

   EN    FR    IT 

 










Légende :    VFR   VFR Marginal   IFR   IFR Intensif   IFR Très Intensif
Visi : 
Plafond : 
>= 8 km
>= 3000ft
5 à 8 km
1000 à 3000 ft
1500m à 5 km
500 à 1000 ft
800 à 1500m
200 à 500 ft
< 800m
< 200 ft
Symboles :   Orages  Brouillard  Fortes neiges  Fortes précipitations  Vent > 20 kt
SIGMETs :   Divers  Orages  Givrage  Turbulence  Onde Orograph.  Cendres Volcan.






- Altitude de l'aérodrome : 204 ft
- Code IATA : AGF


LFBA - Agen

DERNIER METAR :
  • 141200Z AUTO 18005KT 150V210 9999 VV/// //////TCU 25/15 Q1012 BECMG SCT035TCU FEW050CB

METARs EXPIRÉS :
  • 141130Z AUTO VRB02KT 9999 SCT039 SCT130 25/15 Q1013 NOSIG
  • 141100Z AUTO 23005KT 180V320 9999 FEW036 25/14 Q1013 NOSIG
  • 141030Z AUTO VRB05KT 9999 SCT032 SCT140 24/15 Q1013 NOSIG
  • 141000Z AUTO 07006KT 020V120 9999 FEW029 22/16 Q1014 NOSIG
  • 140930Z AUTO 07004KT 340V130 CAVOK 22/15 Q1014 NOSIG
  • 140900Z AUTO 08004KT 030V150 CAVOK 21/15 Q1014 NOSIG
  • 140830Z AUTO VRB03KT 9999 FEW038 SCT190 20/16 Q1014 NOSIG
  • 140800Z AUTO 00000KT 9999 -RA FEW035/// SCT066/// BKN088/// ///TCU 18/15 Q1014 BECMG NSC
  • 140730Z AUTO VRB02KT 9999 FEW037/// SCT092/// BKN110/// //////TCU 18/14 Q1014 BECMG NSC

TAF TAF LFBA
Valide du 14 à 12h jusqu'au 14 à 21h UTC


141100Z 1412/1421 30005KT 9999 SCT040 SCT130
BECMG 1413/1415 SCT035TCU FEW050CB
TEMPO 1416/1421 4000 SHRA
PROB40
TEMPO 1416/1419 31016G26KT 2000 BKN012 OVC040 FEW050CB
PROB30
TEMPO 1417/1419 TSRA



MET'MAP, la Météo Aéronautique d'un coup d'oeil ! - Copyright ORBIFLY Décembre 2007 - Disclaimer

ORBIFLY MET'MAP TEAM :

Programmation & Développement : Alexandra Zaïnal
Sur une idée originale de : Baudouin d'Aumeries
Soutien technique & logistique : Manuel Goepfert
Assistance : Marc-Olivier Méhu




SOURCES & CREDITS :

   NOAA